sensor_id;sensor_type;location;lat;lon;timestamp;pressure;altitude;pressure_sealevel;temperature;humidity
6216;BME280;3141;49.234;9.326;2023-06-22T00:00:24;99664.50;;;23.61;83.88
6216;BME280;3141;49.234;9.326;2023-06-22T00:01:06;99662.97;;;23.65;84.06
6216;BME280;3141;49.234;9.326;2023-06-22T00:01:49;99664.84;;;23.64;83.30
6216;BME280;3141;49.234;9.326;2023-06-22T00:02:32;99669.00;;;23.55;83.83
6216;BME280;3141;49.234;9.326;2023-06-22T00:03:14;99665.72;;;23.53;84.73
6216;BME280;3141;49.234;9.326;2023-06-22T00:03:56;99661.84;;;23.49;84.50
6216;BME280;3141;49.234;9.326;2023-06-22T00:04:39;99659.72;;;23.51;84.19
6216;BME280;3141;49.234;9.326;2023-06-22T00:05:21;99658.66;;;23.52;84.55
6216;BME280;3141;49.234;9.326;2023-06-22T00:06:03;99655.25;;;23.57;84.59
6216;BME280;3141;49.234;9.326;2023-06-22T00:06:46;99655.84;;;23.59;83.95
6216;BME280;3141;49.234;9.326;2023-06-22T00:07:28;99652.31;;;23.58;83.91
6216;BME280;3141;49.234;9.326;2023-06-22T00:08:10;99651.16;;;23.54;83.83
6216;BME280;3141;49.234;9.326;2023-06-22T00:08:53;99653.03;;;23.54;83.84
6216;BME280;3141;49.234;9.326;2023-06-22T00:09:35;99655.16;;;23.40;85.00
6216;BME280;3141;49.234;9.326;2023-06-22T00:10:18;99656.69;;;23.25;85.07
6216;BME280;3141;49.234;9.326;2023-06-22T00:11:00;99658.00;;;23.22;85.50
6216;BME280;3141;49.234;9.326;2023-06-22T00:11:42;99664.09;;;23.18;86.30
6216;BME280;3141;49.234;9.326;2023-06-22T00:12:25;99661.41;;;23.18;86.13
6216;BME280;3141;49.234;9.326;2023-06-22T00:13:08;99663.53;;;23.16;85.57
6216;BME280;3141;49.234;9.326;2023-06-22T00:13:51;99664.78;;;23.25;85.19
6216;BME280;3141;49.234;9.326;2023-06-22T00:14:33;99665.88;;;23.24;84.91
6216;BME280;3141;49.234;9.326;2023-06-22T00:15:15;99662.59;;;23.22;84.35
6216;BME280;3141;49.234;9.326;2023-06-22T00:15:58;99665.88;;;23.24;84.65
6216;BME280;3141;49.234;9.326;2023-06-22T00:16:40;99667.06;;;23.28;84.68
6216;BME280;3141;49.234;9.326;2023-06-22T00:17:25;99666.09;;;23.34;85.03
6216;BME280;3141;49.234;9.326;2023-06-22T00:18:08;99658.59;;;23.36;84.89
6216;BME280;3141;49.234;9.326;2023-06-22T00:18:51;99663.75;;;23.37;84.51
6216;BME280;3141;49.234;9.326;2023-06-22T00:19:33;99659.19;;;23.38;84.12
6216;BME280;3141;49.234;9.326;2023-06-22T00:20:17;99661.88;;;23.38;83.71
6216;BME280;3141;49.234;9.326;2023-06-22T00:21:00;99665.28;;;23.33;83.89
6216;BME280;3141;49.234;9.326;2023-06-22T00:21:42;99660.72;;;23.22;86.21
6216;BME280;3141;49.234;9.326;2023-06-22T00:22:25;99652.97;;;23.26;85.10
6216;BME280;3141;49.234;9.326;2023-06-22T00:23:10;99660.00;;;23.27;84.59
6216;BME280;3141;49.234;9.326;2023-06-22T00:23:52;99659.63;;;23.23;84.59
6216;BME280;3141;49.234;9.326;2023-06-22T00:24:35;99656.84;;;23.18;85.40
6216;BME280;3141;49.234;9.326;2023-06-22T00:25:17;99656.25;;;23.16;85.60
6216;BME280;3141;49.234;9.326;2023-06-22T00:25:59;99654.53;;;23.10;86.51
6216;BME280;3141;49.234;9.326;2023-06-22T00:26:42;99651.09;;;23.15;86.27
6216;BME280;3141;49.234;9.326;2023-06-22T00:27:24;99653.31;;;23.18;85.59
6216;BME280;3141;49.234;9.326;2023-06-22T00:28:06;99646.28;;;23.17;85.69
6216;BME280;3141;49.234;9.326;2023-06-22T00:28:49;99637.72;;;23.20;84.93
6216;BME280;3141;49.234;9.326;2023-06-22T00:29:32;99641.84;;;23.22;85.06
6216;BME280;3141;49.234;9.326;2023-06-22T00:30:18;99639.63;;;23.19;85.28
6216;BME280;3141;49.234;9.326;2023-06-22T00:31:00;99640.31;;;23.15;86.50
6216;BME280;3141;49.234;9.326;2023-06-22T00:31:42;99638.69;;;23.14;86.10
6216;BME280;3141;49.234;9.326;2023-06-22T00:32:25;99642.66;;;23.11;85.28
6216;BME280;3141;49.234;9.326;2023-06-22T00:33:07;99637.50;;;23.10;84.99
6216;BME280;3141;49.234;9.326;2023-06-22T00:33:49;99634.91;;;23.15;84.43
6216;BME280;3141;49.234;9.326;2023-06-22T00:34:32;99635.75;;;23.15;84.35
6216;BME280;3141;49.234;9.326;2023-06-22T00:35:15;99632.69;;;23.12;84.79
6216;BME280;3141;49.234;9.326;2023-06-22T00:35:57;99633.28;;;23.14;84.66
6216;BME280;3141;49.234;9.326;2023-06-22T00:36:39;99630.00;;;23.12;85.34
6216;BME280;3141;49.234;9.326;2023-06-22T00:37:22;99645.34;;;23.11;86.05
6216;BME280;3141;49.234;9.326;2023-06-22T00:38:07;99642.91;;;23.10;85.28
6216;BME280;3141;49.234;9.326;2023-06-22T00:38:50;99641.88;;;23.11;85.22
6216;BME280;3141;49.234;9.326;2023-06-22T00:39:32;99642.22;;;23.14;84.79
6216;BME280;3141;49.234;9.326;2023-06-22T00:40:15;99643.84;;;23.15;84.16
6216;BME280;3141;49.234;9.326;2023-06-22T00:40:59;99643.50;;;23.12;84.86
6216;BME280;3141;49.234;9.326;2023-06-22T00:41:42;99641.13;;;23.15;84.25
6216;BME280;3141;49.234;9.326;2023-06-22T00:42:24;99646.88;;;23.19;83.74
6216;BME280;3141;49.234;9.326;2023-06-22T00:43:06;99642.53;;;23.18;84.50
6216;BME280;3141;49.234;9.326;2023-06-22T00:43:49;99645.22;;;23.18;83.61
6216;BME280;3141;49.234;9.326;2023-06-22T00:44:31;99644.56;;;23.11;84.99
6216;BME280;3141;49.234;9.326;2023-06-22T00:45:13;99654.16;;;23.07;85.03
6216;BME280;3141;49.234;9.326;2023-06-22T00:45:56;99651.97;;;23.04;85.09
6216;BME280;3141;49.234;9.326;2023-06-22T00:46:38;99649.59;;;23.07;84.43
6216;BME280;3141;49.234;9.326;2023-06-22T00:47:21;99644.41;;;23.06;84.53
6216;BME280;3141;49.234;9.326;2023-06-22T00:48:04;99647.25;;;23.11;84.12
6216;BME280;3141;49.234;9.326;2023-06-22T00:48:47;99645.69;;;23.15;83.90
6216;BME280;3141;49.234;9.326;2023-06-22T00:49:29;99646.78;;;23.14;84.65
6216;BME280;3141;49.234;9.326;2023-06-22T00:50:16;99651.09;;;23.15;84.63
6216;BME280;3141;49.234;9.326;2023-06-22T00:51:00;99651.09;;;23.15;84.99
6216;BME280;3141;49.234;9.326;2023-06-22T00:51:43;99651.09;;;23.15;85.06
6216;BME280;3141;49.234;9.326;2023-06-22T00:52:27;99654.88;;;23.14;85.41
6216;BME280;3141;49.234;9.326;2023-06-22T00:53:11;99657.66;;;23.19;85.00
6216;BME280;3141;49.234;9.326;2023-06-22T00:53:54;99654.38;;;23.17;84.96
6216;BME280;3141;49.234;9.326;2023-06-22T00:54:36;99656.84;;;23.18;85.60
6216;BME280;3141;49.234;9.326;2023-06-22T00:55:22;99656.00;;;23.18;84.29
6216;BME280;3141;49.234;9.326;2023-06-22T00:56:05;99651.78;;;23.22;84.06
6216;BME280;3141;49.234;9.326;2023-06-22T00:56:48;99648.84;;;23.23;83.74
6216;BME280;3141;49.234;9.326;2023-06-22T00:57:30;99656.50;;;23.26;82.95
6216;BME280;3141;49.234;9.326;2023-06-22T00:58:14;99661.53;;;23.23;82.88
6216;BME280;3141;49.234;9.326;2023-06-22T00:58:58;99664.69;;;23.20;82.81
6216;BME280;3141;49.234;9.326;2023-06-22T00:59:42;99675.03;;;23.23;83.56
6216;BME280;3141;49.234;9.326;2023-06-22T01:00:26;99677.13;;;23.21;83.12
6216;BME280;3141;49.234;9.326;2023-06-22T01:01:08;99682.53;;;23.21;83.22
6216;BME280;3141;49.234;9.326;2023-06-22T01:01:50;99678.28;;;23.25;83.17
6216;BME280;3141;49.234;9.326;2023-06-22T01:02:33;99681.94;;;23.30;82.96
6216;BME280;3141;49.234;9.326;2023-06-22T01:03:16;99682.78;;;23.31;82.18
6216;BME280;3141;49.234;9.326;2023-06-22T01:03:59;99685.22;;;23.32;82.45
6216;BME280;3141;49.234;9.326;2023-06-22T01:04:42;99684.16;;;23.33;81.54
6216;BME280;3141;49.234;9.326;2023-06-22T01:05:24;99687.44;;;23.35;82.57
6216;BME280;3141;49.234;9.326;2023-06-22T01:06:10;99687.31;;;23.42;83.17
6216;BME280;3141;49.234;9.326;2023-06-22T01:07:05;99689.78;;;23.43;82.79
6216;BME280;3141;49.234;9.326;2023-06-22T01:09:06;99703.28;;;23.43;82.80
6216;BME280;3141;49.234;9.326;2023-06-22T01:10:07;99715.72;;;23.44;82.28
6216;BME280;3141;49.234;9.326;2023-06-22T01:11:20;99722.38;;;23.42;82.86
6216;BME280;3141;49.234;9.326;2023-06-22T01:12:06;99739.06;;;23.39;82.99
6216;BME280;3141;49.234;9.326;2023-06-22T01:13:02;99760.41;;;23.40;83.24
6216;BME280;3141;49.234;9.326;2023-06-22T01:15:18;99830.41;;;23.24;83.84
6216;BME280;3141;49.234;9.326;2023-06-22T01:16:40;99860.56;;;23.21;84.06
6216;BME280;3141;49.234;9.326;2023-06-22T01:17:15;99901.22;;;23.08;84.38
6216;BME280;3141;49.234;9.326;2023-06-22T01:17:59;99914.56;;;23.03;85.45
6216;BME280;3141;49.234;9.326;2023-06-22T01:18:43;99921.66;;;22.85;86.40
6216;BME280;3141;49.234;9.326;2023-06-22T01:19:39;99920.41;;;22.88;85.96
6216;BME280;3141;49.234;9.326;2023-06-22T01:20:26;99915.66;;;22.83;85.94
6216;BME280;3141;49.234;9.326;2023-06-22T01:21:17;99904.66;;;22.85;85.32
6216;BME280;3141;49.234;9.326;2023-06-22T01:22:00;99877.44;;;22.75;85.76
6216;BME280;3141;49.234;9.326;2023-06-22T01:24:24;99850.66;;;22.92;86.10
6216;BME280;3141;49.234;9.326;2023-06-22T01:25:20;99839.53;;;23.11;84.59
6216;BME280;3141;49.234;9.326;2023-06-22T01:26:18;99837.78;;;23.17;84.60
6216;BME280;3141;49.234;9.326;2023-06-22T01:28:20;99826.28;;;23.10;84.73
6216;BME280;3141;49.234;9.326;2023-06-22T01:29:05;99833.00;;;23.19;84.47
6216;BME280;3141;49.234;9.326;2023-06-22T01:29:51;99829.09;;;23.15;85.46
6216;BME280;3141;49.234;9.326;2023-06-22T01:30:34;99829.47;;;23.07;85.49
6216;BME280;3141;49.234;9.326;2023-06-22T01:31:23;99817.97;;;23.00;86.49
6216;BME280;3141;49.234;9.326;2023-06-22T01:32:07;99811.06;;;23.04;86.45
6216;BME280;3141;49.234;9.326;2023-06-22T01:32:50;99800.59;;;22.96;86.24
6216;BME280;3141;49.234;9.326;2023-06-22T01:33:37;99790.34;;;22.74;87.79
6216;BME280;3141;49.234;9.326;2023-06-22T01:34:21;99788.84;;;22.78;88.05
6216;BME280;3141;49.234;9.326;2023-06-22T01:35:07;99785.00;;;22.86;87.06
6216;BME280;3141;49.234;9.326;2023-06-22T01:35:49;99777.28;;;22.89;86.80
6216;BME280;3141;49.234;9.326;2023-06-22T01:36:33;99778.56;;;22.99;86.41
6216;BME280;3141;49.234;9.326;2023-06-22T01:37:16;99770.13;;;22.95;86.11
6216;BME280;3141;49.234;9.326;2023-06-22T01:37:59;99772.59;;;22.97;86.03
6216;BME280;3141;49.234;9.326;2023-06-22T01:38:41;99765.41;;;23.02;85.28
6216;BME280;3141;49.234;9.326;2023-06-22T01:39:25;99776.56;;;23.06;85.35
6216;BME280;3141;49.234;9.326;2023-06-22T01:40:08;99760.03;;;23.02;85.20
6216;BME280;3141;49.234;9.326;2023-06-22T01:40:51;99758.03;;;22.98;84.42
6216;BME280;3141;49.234;9.326;2023-06-22T01:41:37;99761.22;;;22.95;84.87
6216;BME280;3141;49.234;9.326;2023-06-22T01:42:19;99749.84;;;22.92;84.53
6216;BME280;3141;49.234;9.326;2023-06-22T01:43:03;99750.44;;;22.95;84.98
6216;BME280;3141;49.234;9.326;2023-06-22T01:43:45;99746.44;;;22.97;84.48
6216;BME280;3141;49.234;9.326;2023-06-22T01:44:29;99742.69;;;22.86;85.06
6216;BME280;3141;49.234;9.326;2023-06-22T01:45:12;99745.28;;;22.93;84.56
6216;BME280;3141;49.234;9.326;2023-06-22T01:45:55;99738.94;;;22.99;83.98
6216;BME280;3141;49.234;9.326;2023-06-22T01:46:39;99739.28;;;23.03;83.68
6216;BME280;3141;49.234;9.326;2023-06-22T01:47:21;99741.28;;;22.96;83.75
6216;BME280;3141;49.234;9.326;2023-06-22T01:48:04;99741.88;;;22.98;84.19
6216;BME280;3141;49.234;9.326;2023-06-22T01:48:47;99728.28;;;22.92;84.62
6216;BME280;3141;49.234;9.326;2023-06-22T01:49:30;99725.81;;;22.91;84.72
6216;BME280;3141;49.234;9.326;2023-06-22T01:50:12;99716.78;;;22.85;84.92
6216;BME280;3141;49.234;9.326;2023-06-22T01:50:55;99713.47;;;22.83;85.34
6216;BME280;3141;49.234;9.326;2023-06-22T01:51:37;99710.66;;;22.90;84.90
6216;BME280;3141;49.234;9.326;2023-06-22T01:52:20;99717.47;;;22.92;84.45
6216;BME280;3141;49.234;9.326;2023-06-22T01:53:03;99717.59;;;22.98;84.08
6216;BME280;3141;49.234;9.326;2023-06-22T01:53:45;99718.66;;;22.97;84.26
6216;BME280;3141;49.234;9.326;2023-06-22T01:54:29;99721.13;;;22.98;83.75
6216;BME280;3141;49.234;9.326;2023-06-22T01:55:12;99723.22;;;22.96;84.35
6216;BME280;3141;49.234;9.326;2023-06-22T01:55:55;99718.78;;;23.02;84.15
6216;BME280;3141;49.234;9.326;2023-06-22T01:56:38;99729.44;;;23.08;83.32
6216;BME280;3141;49.234;9.326;2023-06-22T01:57:21;99717.22;;;23.06;83.72
6216;BME280;3141;49.234;9.326;2023-06-22T01:58:03;99713.38;;;23.02;83.48
6216;BME280;3141;49.234;9.326;2023-06-22T01:59:59;99715.38;;;23.06;83.62
6216;BME280;3141;49.234;9.326;2023-06-22T02:00:48;99711.50;;;23.02;83.67
6216;BME280;3141;49.234;9.326;2023-06-22T02:01:57;99706.34;;;23.01;83.69
6216;BME280;3141;49.234;9.326;2023-06-22T02:02:42;99702.00;;;23.00;83.94
6216;BME280;3141;49.234;9.326;2023-06-22T02:03:37;99694.41;;;22.97;84.10
6216;BME280;3141;49.234;9.326;2023-06-22T02:04:25;99693.09;;;22.99;84.02
6216;BME280;3141;49.234;9.326;2023-06-22T02:05:09;99689.81;;;22.97;83.87
6216;BME280;3141;49.234;9.326;2023-06-22T02:05:58;99691.56;;;23.03;83.03
6216;BME280;3141;49.234;9.326;2023-06-22T02:06:45;99689.22;;;23.07;82.34
6216;BME280;3141;49.234;9.326;2023-06-22T02:07:32;99691.56;;;23.15;82.34
6216;BME280;3141;49.234;9.326;2023-06-22T02:08:22;99694.25;;;23.15;82.42
6216;BME280;3141;49.234;9.326;2023-06-22T02:09:11;99695.56;;;23.12;82.45
6216;BME280;3141;49.234;9.326;2023-06-22T02:09:55;99693.78;;;23.06;82.82
6216;BME280;3141;49.234;9.326;2023-06-22T02:10:40;99695.66;;;23.06;83.01
6216;BME280;3141;49.234;9.326;2023-06-22T02:11:26;99691.81;;;23.02;83.47
6216;BME280;3141;49.234;9.326;2023-06-22T02:12:11;99685.25;;;22.98;83.57
6216;BME280;3141;49.234;9.326;2023-06-22T02:12:56;99689.69;;;22.92;84.40
6216;BME280;3141;49.234;9.326;2023-06-22T02:13:39;99696.16;;;22.91;84.06
6216;BME280;3141;49.234;9.326;2023-06-22T02:14:25;99696.63;;;22.88;84.31
6216;BME280;3141;49.234;9.326;2023-06-22T02:15:08;99691.91;;;22.83;84.33
6216;BME280;3141;49.234;9.326;2023-06-22T02:15:52;99705.16;;;22.85;84.36
6216;BME280;3141;49.234;9.326;2023-06-22T02:16:35;99694.72;;;22.88;84.19
6216;BME280;3141;49.234;9.326;2023-06-22T02:17:18;99691.00;;;22.89;83.84
6216;BME280;3141;49.234;9.326;2023-06-22T02:18:00;99691.00;;;22.89;83.71
6216;BME280;3141;49.234;9.326;2023-06-22T02:18:47;99691.91;;;22.83;84.54
6216;BME280;3141;49.234;9.326;2023-06-22T02:19:36;99689.09;;;22.90;84.12
6216;BME280;3141;49.234;9.326;2023-06-22T02:20:18;99694.38;;;22.85;84.57
6216;BME280;3141;49.234;9.326;2023-06-22T02:21:02;99697.44;;;22.88;84.38
6216;BME280;3141;49.234;9.326;2023-06-22T02:21:45;99694.72;;;22.88;84.27
6216;BME280;3141;49.234;9.326;2023-06-22T02:22:27;99698.03;;;22.90;83.64
6216;BME280;3141;49.234;9.326;2023-06-22T02:23:10;99697.31;;;22.83;84.13
6216;BME280;3141;49.234;9.326;2023-06-22T02:23:52;99700.25;;;22.82;84.10
6216;BME280;3141;49.234;9.326;2023-06-22T02:24:34;99695.81;;;22.76;84.39
6216;BME280;3141;49.234;9.326;2023-06-22T02:25:17;99689.59;;;22.75;84.75
6216;BME280;3141;49.234;9.326;2023-06-22T02:25:59;99697.78;;;22.80;84.34
6216;BME280;3141;49.234;9.326;2023-06-22T02:26:42;99692.75;;;22.84;84.23
6216;BME280;3141;49.234;9.326;2023-06-22T02:27:26;99690.78;;;22.79;84.34
6216;BME280;3141;49.234;9.326;2023-06-22T02:28:08;99693.47;;;22.79;84.20
6216;BME280;3141;49.234;9.326;2023-06-22T02:28:51;99690.78;;;22.79;84.44
6216;BME280;3141;49.234;9.326;2023-06-22T02:29:33;99692.16;;;22.82;84.76
6216;BME280;3141;49.234;9.326;2023-06-22T02:30:16;99689.56;;;22.87;84.11
6216;BME280;3141;49.234;9.326;2023-06-22T02:30:58;99694.84;;;22.93;83.34
6216;BME280;3141;49.234;9.326;2023-06-22T02:31:40;99692.84;;;23.01;82.56
6216;BME280;3141;49.234;9.326;2023-06-22T02:32:23;99692.38;;;22.92;82.92
6216;BME280;3141;49.234;9.326;2023-06-22T02:33:05;99688.06;;;22.91;83.30
6216;BME280;3141;49.234;9.326;2023-06-22T02:33:47;99697.66;;;22.87;83.63
6216;BME280;3141;49.234;9.326;2023-06-22T02:34:31;99697.53;;;22.93;83.07
6216;BME280;3141;49.234;9.326;2023-06-22T02:35:16;99703.66;;;22.89;83.04
6216;BME280;3141;49.234;9.326;2023-06-22T02:35:58;99702.81;;;22.88;82.62
6216;BME280;3141;49.234;9.326;2023-06-22T02:36:40;99704.25;;;22.91;83.27
6216;BME280;3141;49.234;9.326;2023-06-22T02:37:23;99706.22;;;22.96;82.62
6216;BME280;3141;49.234;9.326;2023-06-22T02:38:07;99704.25;;;22.91;83.47
6216;BME280;3141;49.234;9.326;2023-06-22T02:38:50;99705.19;;;22.97;83.42
6216;BME280;3141;49.234;9.326;2023-06-22T02:39:32;99705.06;;;22.92;83.24
6216;BME280;3141;49.234;9.326;2023-06-22T02:40:15;99701.31;;;22.92;82.87
6216;BME280;3141;49.234;9.326;2023-06-22T02:40:57;99703.09;;;22.99;82.78
6216;BME280;3141;49.234;9.326;2023-06-22T02:41:39;99700.38;;;22.99;82.49
6216;BME280;3141;49.234;9.326;2023-06-22T02:42:22;99702.84;;;23.00;82.14
6216;BME280;3141;49.234;9.326;2023-06-22T02:43:04;99702.84;;;23.00;82.00
6216;BME280;3141;49.234;9.326;2023-06-22T02:43:46;99701.78;;;23.01;81.91
6216;BME280;3141;49.234;9.326;2023-06-22T02:44:29;99697.44;;;23.00;82.13
6216;BME280;3141;49.234;9.326;2023-06-22T02:45:11;99698.72;;;22.98;82.36
6216;BME280;3141;49.234;9.326;2023-06-22T02:45:53;99695.91;;;22.92;82.75
6216;BME280;3141;49.234;9.326;2023-06-22T02:46:36;99700.25;;;22.82;83.57
6216;BME280;3141;49.234;9.326;2023-06-22T02:47:18;99698.38;;;22.82;83.80
6216;BME280;3141;49.234;9.326;2023-06-22T02:48:00;99701.66;;;22.84;83.72
6216;BME280;3141;49.234;9.326;2023-06-22T02:48:43;99706.34;;;22.89;83.11
6216;BME280;3141;49.234;9.326;2023-06-22T02:49:25;99697.66;;;22.87;83.56
6216;BME280;3141;49.234;9.326;2023-06-22T02:50:08;99705.50;;;22.88;83.25
6216;BME280;3141;49.234;9.326;2023-06-22T02:50:50;99697.66;;;22.87;83.61
6216;BME280;3141;49.234;9.326;2023-06-22T02:51:33;99692.75;;;22.84;83.53
6216;BME280;3141;49.234;9.326;2023-06-22T02:52:18;99705.50;;;22.88;83.39
6216;BME280;3141;49.234;9.326;2023-06-22T02:53:00;99703.41;;;22.90;82.96
6216;BME280;3141;49.234;9.326;2023-06-22T02:53:43;99703.06;;;22.87;82.80
6216;BME280;3141;49.234;9.326;2023-06-22T02:54:29;99693.34;;;22.86;82.91
6216;BME280;3141;49.234;9.326;2023-06-22T02:55:11;99696.41;;;22.89;82.71
6216;BME280;3141;49.234;9.326;2023-06-22T02:55:54;99698.03;;;22.90;82.54
6216;BME280;3141;49.234;9.326;2023-06-22T02:56:36;99693.22;;;22.92;82.76
6216;BME280;3141;49.234;9.326;2023-06-22T02:57:18;99693.56;;;22.96;82.15
6216;BME280;3141;49.234;9.326;2023-06-22T02:58:01;99679.03;;;22.85;82.40
6216;BME280;3141;49.234;9.326;2023-06-22T02:58:47;99682.31;;;22.87;82.44
6216;BME280;3141;49.234;9.326;2023-06-22T02:59:29;99677.28;;;22.79;82.77
6216;BME280;3141;49.234;9.326;2023-06-22T03:00:12;99679.63;;;22.87;82.64
6216;BME280;3141;49.234;9.326;2023-06-22T03:01:05;99676.81;;;22.82;82.77
6216;BME280;3141;49.234;9.326;2023-06-22T03:01:47;99679.63;;;22.87;82.93
6216;BME280;3141;49.234;9.326;2023-06-22T03:02:29;99667.88;;;22.93;82.16
6216;BME280;3141;49.234;9.326;2023-06-22T03:03:12;99678.81;;;22.99;82.25
6216;BME280;3141;49.234;9.326;2023-06-22T03:03:54;99675.88;;;23.00;81.86
6216;BME280;3141;49.234;9.326;2023-06-22T03:04:36;99678.22;;;22.97;81.77
6216;BME280;3141;49.234;9.326;2023-06-22T03:05:19;99682.06;;;23.01;81.80
6216;BME280;3141;49.234;9.326;2023-06-22T03:06:01;99682.06;;;23.01;81.40
6216;BME280;3141;49.234;9.326;2023-06-22T03:06:43;99675.97;;;23.05;81.36
6216;BME280;3141;49.234;9.326;2023-06-22T03:07:26;99684.88;;;23.06;81.71
6216;BME280;3141;49.234;9.326;2023-06-22T03:08:09;99675.97;;;23.05;81.01
6216;BME280;3141;49.234;9.326;2023-06-22T03:08:52;99677.84;;;23.05;81.88
6216;BME280;3141;49.234;9.326;2023-06-22T03:09:34;99673.63;;;22.97;81.30
6216;BME280;3141;49.234;9.326;2023-06-22T03:10:16;99670.38;;;22.95;81.92
6216;BME280;3141;49.234;9.326;2023-06-22T03:10:59;99663.66;;;22.98;81.64
6216;BME280;3141;49.234;9.326;2023-06-22T03:11:41;99670.56;;;22.93;82.23
6216;BME280;3141;49.234;9.326;2023-06-22T03:12:23;99662.28;;;22.95;81.96
6216;BME280;3141;49.234;9.326;2023-06-22T03:13:06;99667.88;;;22.93;81.79
6216;BME280;3141;49.234;9.326;2023-06-22T03:13:48;99667.31;;;22.92;82.50
6216;BME280;3141;49.234;9.326;2023-06-22T03:14:31;99671.53;;;22.87;82.72
6216;BME280;3141;49.234;9.326;2023-06-22T03:15:13;99674.81;;;22.89;82.34
6216;BME280;3141;49.234;9.326;2023-06-22T03:15:55;99674.81;;;22.89;82.77
6216;BME280;3141;49.234;9.326;2023-06-22T03:16:38;99681.38;;;22.82;82.83
6216;BME280;3141;49.234;9.326;2023-06-22T03:17:20;99675.16;;;22.81;83.45
6216;BME280;3141;49.234;9.326;2023-06-22T03:18:02;99687.13;;;22.85;83.30
6216;BME280;3141;49.234;9.326;2023-06-22T03:18:45;99675.63;;;22.90;82.26
6216;BME280;3141;49.234;9.326;2023-06-22T03:19:27;99678.09;;;22.92;82.90
6216;BME280;3141;49.234;9.326;2023-06-22T03:20:11;99683.84;;;22.83;82.25
6216;BME280;3141;49.234;9.326;2023-06-22T03:20:54;99682.44;;;22.92;82.77
6216;BME280;3141;49.234;9.326;2023-06-22T03:21:37;99678.81;;;22.99;81.59
6216;BME280;3141;49.234;9.326;2023-06-22T03:22:20;99680.31;;;22.95;81.62
6216;BME280;3141;49.234;9.326;2023-06-22T03:23:02;99676.44;;;22.90;82.50
6216;BME280;3141;49.234;9.326;2023-06-22T03:23:45;99675.63;;;22.90;82.42
6216;BME280;3141;49.234;9.326;2023-06-22T03:24:27;99678.09;;;22.92;81.89
6216;BME280;3141;49.234;9.326;2023-06-22T03:25:11;99674.22;;;22.87;81.83
6216;BME280;3141;49.234;9.326;2023-06-22T03:25:56;99673.66;;;22.85;82.70
6216;BME280;3141;49.234;9.326;2023-06-22T03:26:39;99668.72;;;22.82;82.52
6216;BME280;3141;49.234;9.326;2023-06-22T03:27:21;99670.00;;;22.80;83.00
6216;BME280;3141;49.234;9.326;2023-06-22T03:28:04;99670.13;;;22.73;83.49
6216;BME280;3141;49.234;9.326;2023-06-22T03:28:46;99665.34;;;22.75;83.38
6216;BME280;3141;49.234;9.326;2023-06-22T03:29:28;99657.72;;;22.72;83.25
6216;BME280;3141;49.234;9.326;2023-06-22T03:30:12;99661.22;;;22.73;83.81
6216;BME280;3141;49.234;9.326;2023-06-22T03:30:54;99666.03;;;22.71;84.05
6216;BME280;3141;49.234;9.326;2023-06-22T03:31:36;99661.94;;;22.68;84.06
6216;BME280;3141;49.234;9.326;2023-06-22T03:32:19;99665.09;;;22.65;83.96
6216;BME280;3141;49.234;9.326;2023-06-22T03:33:01;99660.66;;;22.71;83.44
6216;BME280;3141;49.234;9.326;2023-06-22T03:33:43;99660.41;;;22.72;83.33
6216;BME280;3141;49.234;9.326;2023-06-22T03:34:26;99664.63;;;22.68;84.29
6216;BME280;3141;49.234;9.326;2023-06-22T03:35:09;99660.97;;;22.74;83.23
6216;BME280;3141;49.234;9.326;2023-06-22T03:35:52;99665.22;;;22.70;83.86
6216;BME280;3141;49.234;9.326;2023-06-22T03:36:35;99662.75;;;22.69;84.11
6216;BME280;3141;49.234;9.326;2023-06-22T03:37:18;99662.16;;;22.78;83.35
6216;BME280;3141;49.234;9.326;2023-06-22T03:38:00;99656.75;;;22.78;83.59
6216;BME280;3141;49.234;9.326;2023-06-22T03:38:42;99661.91;;;22.80;83.04
6216;BME280;3141;49.234;9.326;2023-06-22T03:39:25;99660.41;;;22.84;82.90
6216;BME280;3141;49.234;9.326;2023-06-22T03:40:08;99651.47;;;22.83;83.06
6216;BME280;3141;49.234;9.326;2023-06-22T03:40:50;99654.91;;;22.79;83.20
6216;BME280;3141;49.234;9.326;2023-06-22T03:41:32;99650.53;;;22.78;83.62
6216;BME280;3141;49.234;9.326;2023-06-22T03:42:15;99649.88;;;22.82;82.65
6216;BME280;3141;49.234;9.326;2023-06-22T03:42:57;99653.25;;;22.78;82.96
6216;BME280;3141;49.234;9.326;2023-06-22T03:43:39;99652.31;;;22.72;83.70
6216;BME280;3141;49.234;9.326;2023-06-22T03:44:21;99658.88;;;22.76;83.57
6216;BME280;3141;49.234;9.326;2023-06-22T03:45:04;99665.56;;;22.74;83.76
6216;BME280;3141;49.234;9.326;2023-06-22T03:45:47;99658.06;;;22.76;82.42
6216;BME280;3141;49.234;9.326;2023-06-22T03:46:29;99656.28;;;22.81;83.25
6216;BME280;3141;49.234;9.326;2023-06-22T03:47:12;99660.06;;;22.80;82.91
6216;BME280;3141;49.234;9.326;2023-06-22T03:47:55;99661.69;;;22.81;82.87
6216;BME280;3141;49.234;9.326;2023-06-22T03:48:37;99662.50;;;22.82;82.61
6216;BME280;3141;49.234;9.326;2023-06-22T03:49:20;99667.66;;;22.83;82.77
6216;BME280;3141;49.234;9.326;2023-06-22T03:50:02;99662.28;;;22.83;82.42
6216;BME280;3141;49.234;9.326;2023-06-22T03:50:45;99663.34;;;22.82;82.75
6216;BME280;3141;49.234;9.326;2023-06-22T03:51:28;99656.09;;;22.83;82.60
6216;BME280;3141;49.234;9.326;2023-06-22T03:52:10;99653.03;;;22.79;82.59
6216;BME280;3141;49.234;9.326;2023-06-22T03:52:53;99649.16;;;22.75;83.47
6216;BME280;3141;49.234;9.326;2023-06-22T03:53:35;99645.50;;;22.81;82.65
6216;BME280;3141;49.234;9.326;2023-06-22T03:54:17;99655.25;;;22.82;82.37
6216;BME280;3141;49.234;9.326;2023-06-22T03:55:00;99653.59;;;22.81;83.04
6216;BME280;3141;49.234;9.326;2023-06-22T03:55:50;99654.53;;;22.87;82.10
6216;BME280;3141;49.234;9.326;2023-06-22T03:56:32;99653.25;;;22.89;82.19
6216;BME280;3141;49.234;9.326;2023-06-22T03:57:15;99654.88;;;22.90;81.66
6216;BME280;3141;49.234;9.326;2023-06-22T03:57:57;99660.88;;;22.92;81.70
6216;BME280;3141;49.234;9.326;2023-06-22T03:58:39;99664.03;;;22.89;81.75
6216;BME280;3141;49.234;9.326;2023-06-22T03:59:25;99657.00;;;22.88;81.64
6216;BME280;3141;49.234;9.326;2023-06-22T04:00:07;99660.75;;;22.87;81.58
6216;BME280;3141;49.234;9.326;2023-06-22T04:00:51;99660.03;;;22.92;81.67
6216;BME280;3141;49.234;9.326;2023-06-22T04:01:33;99664.63;;;22.92;82.10
6216;BME280;3141;49.234;9.326;2023-06-22T04:02:15;99665.06;;;22.88;82.04
6216;BME280;3141;49.234;9.326;2023-06-22T04:02:58;99660.03;;;22.92;82.21
6216;BME280;3141;49.234;9.326;2023-06-22T04:03:40;99653.25;;;22.89;82.86
6216;BME280;3141;49.234;9.326;2023-06-22T04:04:23;99652.78;;;22.92;82.72
6216;BME280;3141;49.234;9.326;2023-06-22T04:05:05;99663.09;;;22.96;81.57